DFAII EDJA-EDLM
Flight info
| Callsign | DFAII |
|---|---|
| Flight time | 1h 20m |
| Altitude | 28000 |
| Route | LUPOL5A LUPOL P66 DITBA DCT BABEG/N0277F300 DCT SOGMI Z850 ADEMI |
| Aircraft | SF50/L-SDGRWY/L |
Departure
| Time | 2026-05-07 14:55 |
|---|---|
| Airport | Memmingen Allgau Airport (EDJA) |
Arrival
| Time | 2026-05-07 16:16 |
|---|---|
| Airport | Marl-Loemühle Airfield (EDLM) |
| Time | Latitude | Longitude | Altitude | Speed | Heading |
|---|---|---|---|---|---|
| 2026-05-07 14:45 | 47.98662 | 10.23740 | 2071 ft | 0 kts | 329° |
| 2026-05-07 14:53 | 47.98686 | 10.23739 | 2070 ft | 13 kts | 38° |
| 2026-05-07 14:54 | 47.98744 | 10.23832 | 2069 ft | 12 kts | 9° |
| 2026-05-07 14:54 | 47.98808 | 10.23792 | 2070 ft | 6 kts | 282° |
| 2026-05-07 14:54 | 47.98712 | 10.23519 | 2074 ft | 58 kts | 240° |
| 2026-05-07 14:54 | 47.98428 | 10.22799 | 2088 ft | 98 kts | 246° |
| 2026-05-07 14:55 | 47.98042 | 10.21835 | 2173 ft | 126 kts | 242° |
| 2026-05-07 14:55 | 47.97559 | 10.20651 | 2558 ft | 143 kts | 244° |
| 2026-05-07 14:55 | 47.97057 | 10.19257 | 3010 ft | 161 kts | 243° |
| 2026-05-07 14:55 | 47.96478 | 10.17755 | 3567 ft | 168 kts | 241° |
| 2026-05-07 14:56 | 47.95877 | 10.16258 | 4235 ft | 169 kts | 241° |
| 2026-05-07 14:56 | 47.95274 | 10.14757 | 4950 ft | 167 kts | 241° |
| 2026-05-07 14:56 | 47.94666 | 10.13264 | 5594 ft | 169 kts | 240° |
| 2026-05-07 14:56 | 47.94056 | 10.11762 | 6194 ft | 170 kts | 240° |
| 2026-05-07 14:57 | 47.93443 | 10.10247 | 6791 ft | 171 kts | 241° |
| 2026-05-07 14:57 | 47.92797 | 10.08651 | 7017 ft | 194 kts | 240° |
| 2026-05-07 14:57 | 47.92041 | 10.06782 | 7032 ft | 228 kts | 240° |
| 2026-05-07 14:57 | 47.91164 | 10.04629 | 7032 ft | 256 kts | 240° |
| 2026-05-07 14:58 | 47.90205 | 10.02262 | 7029 ft | 275 kts | 241° |
| 2026-05-07 14:58 | 47.89634 | 9.99547 | 7055 ft | 286 kts | 266° |
| 2026-05-07 14:58 | 47.90059 | 9.96781 | 8091 ft | 263 kts | 296° |
| 2026-05-07 14:58 | 47.91254 | 9.94910 | 9262 ft | 242 kts | 325° |
| 2026-05-07 14:59 | 47.92732 | 9.94001 | 10435 ft | 219 kts | 342° |
| 2026-05-07 14:59 | 47.94176 | 9.93858 | 11474 ft | 199 kts | 0° |
| 2026-05-07 14:59 | 47.95526 | 9.94351 | 11963 ft | 205 kts | 19° |
| 2026-05-07 14:59 | 47.96898 | 9.94830 | 12356 ft | 201 kts | 351° |
| 2026-05-07 15:00 | 47.98116 | 9.94064 | 12809 ft | 191 kts | 317° |
| 2026-05-07 15:00 | 47.99199 | 9.92841 | 13213 ft | 196 kts | 324° |
| 2026-05-07 15:00 | 48.00443 | 9.92018 | 13647 ft | 201 kts | 336° |
| 2026-05-07 15:00 | 48.01778 | 9.91363 | 14059 ft | 203 kts | 336° |
| 2026-05-07 15:01 | 48.03111 | 9.90673 | 14475 ft | 203 kts | 335° |
| 2026-05-07 15:01 | 48.04440 | 9.89966 | 14880 ft | 204 kts | 335° |
| 2026-05-07 15:01 | 48.05780 | 9.89255 | 15293 ft | 204 kts | 335° |
| 2026-05-07 15:01 | 48.07139 | 9.88531 | 15722 ft | 205 kts | 335° |
| 2026-05-07 15:02 | 48.08483 | 9.87820 | 16136 ft | 206 kts | 336° |
| 2026-05-07 15:02 | 48.09814 | 9.87111 | 16544 ft | 206 kts | 336° |
| 2026-05-07 15:02 | 48.11174 | 9.86389 | 16959 ft | 207 kts | 336° |
| 2026-05-07 15:02 | 48.12534 | 9.85665 | 17372 ft | 208 kts | 336° |
| 2026-05-07 15:03 | 48.13901 | 9.84939 | 17779 ft | 209 kts | 336° |
| 2026-05-07 15:03 | 48.15279 | 9.84208 | 18186 ft | 211 kts | 336° |
| 2026-05-07 15:03 | 48.16666 | 9.83473 | 18564 ft | 212 kts | 336° |
| 2026-05-07 15:03 | 48.18057 | 9.82730 | 18913 ft | 213 kts | 336° |
| 2026-05-07 15:04 | 48.19456 | 9.81987 | 19264 ft | 214 kts | 336° |
| 2026-05-07 15:04 | 48.20863 | 9.81238 | 19615 ft | 215 kts | 336° |
| 2026-05-07 15:04 | 48.22279 | 9.80484 | 19976 ft | 216 kts | 336° |
| 2026-05-07 15:04 | 48.23703 | 9.79725 | 20339 ft | 217 kts | 336° |
| 2026-05-07 15:05 | 48.25124 | 9.78966 | 20728 ft | 217 kts | 336° |
| 2026-05-07 15:05 | 48.26553 | 9.78204 | 21088 ft | 218 kts | 336° |
| 2026-05-07 15:05 | 48.27975 | 9.77441 | 21471 ft | 217 kts | 336° |
| 2026-05-07 15:05 | 48.29399 | 9.76680 | 21865 ft | 217 kts | 336° |
| 2026-05-07 15:06 | 48.30817 | 9.75919 | 22249 ft | 216 kts | 336° |
| 2026-05-07 15:06 | 48.32235 | 9.75161 | 22633 ft | 216 kts | 336° |
| 2026-05-07 15:06 | 48.33649 | 9.74402 | 23019 ft | 215 kts | 336° |
| 2026-05-07 15:06 | 48.35058 | 9.73644 | 23398 ft | 215 kts | 336° |
| 2026-05-07 15:07 | 48.36467 | 9.72890 | 23741 ft | 215 kts | 336° |
| 2026-05-07 15:07 | 48.37873 | 9.72134 | 24051 ft | 214 kts | 336° |
| 2026-05-07 15:07 | 48.39274 | 9.71379 | 24359 ft | 214 kts | 336° |
| 2026-05-07 15:07 | 48.40673 | 9.70629 | 24685 ft | 213 kts | 336° |
| 2026-05-07 15:08 | 48.42068 | 9.69877 | 25014 ft | 213 kts | 336° |
| 2026-05-07 15:08 | 48.43462 | 9.69125 | 25312 ft | 213 kts | 336° |
| 2026-05-07 15:08 | 48.44854 | 9.68375 | 25614 ft | 212 kts | 336° |
| 2026-05-07 15:08 | 48.46242 | 9.67629 | 25905 ft | 212 kts | 336° |
| 2026-05-07 15:09 | 48.47631 | 9.66880 | 26253 ft | 211 kts | 336° |
| 2026-05-07 15:09 | 48.49014 | 9.66132 | 26600 ft | 211 kts | 336° |
| 2026-05-07 15:09 | 48.50395 | 9.65384 | 26949 ft | 211 kts | 336° |
| 2026-05-07 15:09 | 48.51781 | 9.64746 | 27277 ft | 213 kts | 346° |
| 2026-05-07 15:10 | 48.53280 | 9.64716 | 27574 ft | 217 kts | 1° |
| 2026-05-07 15:10 | 48.54788 | 9.64937 | 27860 ft | 217 kts | 0° |
| 2026-05-07 15:10 | 48.56302 | 9.65120 | 28020 ft | 222 kts | 0° |
| 2026-05-07 15:10 | 48.57884 | 9.65318 | 28034 ft | 234 kts | 1° |
| 2026-05-07 15:11 | 48.59545 | 9.65535 | 28031 ft | 245 kts | 1° |
| 2026-05-07 15:11 | 48.61265 | 9.65759 | 28035 ft | 253 kts | 1° |
| 2026-05-07 15:11 | 48.63049 | 9.65991 | 28031 ft | 261 kts | 1° |
| 2026-05-07 15:11 | 48.63930 | 9.66108 | 28032 ft | 264 kts | 1° |
| 2026-05-07 15:12 | 48.64869 | 9.66228 | 28033 ft | 267 kts | 1° |
| 2026-05-07 15:12 | 48.66735 | 9.66417 | 28031 ft | 270 kts | 356° |
| 2026-05-07 15:12 | 48.68589 | 9.65987 | 28032 ft | 270 kts | 341° |
| 2026-05-07 15:13 | 48.70412 | 9.65235 | 28034 ft | 274 kts | 341° |
| 2026-05-07 15:13 | 48.72244 | 9.64513 | 28034 ft | 278 kts | 342° |
| 2026-05-07 15:13 | 48.74151 | 9.63764 | 28033 ft | 281 kts | 342° |
| 2026-05-07 15:13 | 48.76028 | 9.63016 | 28033 ft | 283 kts | 341° |
| 2026-05-07 15:14 | 48.77940 | 9.62249 | 28030 ft | 286 kts | 341° |
| 2026-05-07 15:14 | 48.79874 | 9.61475 | 28035 ft | 289 kts | 341° |
| 2026-05-07 15:14 | 48.81823 | 9.60698 | 28037 ft | 292 kts | 341° |
| 2026-05-07 15:14 | 48.83794 | 9.59912 | 28040 ft | 294 kts | 341° |
| 2026-05-07 15:15 | 48.85781 | 9.59118 | 28041 ft | 296 kts | 341° |
| 2026-05-07 15:15 | 48.87781 | 9.58316 | 28043 ft | 298 kts | 341° |
| 2026-05-07 15:15 | 48.89794 | 9.57509 | 28046 ft | 300 kts | 341° |
| 2026-05-07 15:15 | 48.91812 | 9.56700 | 28033 ft | 302 kts | 342° |
| 2026-05-07 15:16 | 48.95899 | 9.55062 | 28051 ft | 305 kts | 342° |
| 2026-05-07 15:16 | 49.00021 | 9.53405 | 28041 ft | 307 kts | 342° |
| 2026-05-07 15:17 | 49.04175 | 9.51735 | 28050 ft | 309 kts | 342° |
| 2026-05-07 15:17 | 49.08337 | 9.50055 | 28052 ft | 310 kts | 342° |
| 2026-05-07 15:18 | 49.12422 | 9.48412 | 28041 ft | 293 kts | 341° |
| 2026-05-07 15:18 | 49.14359 | 9.47623 | 28038 ft | 284 kts | 341° |
| 2026-05-07 15:18 | 49.16249 | 9.46856 | 28035 ft | 277 kts | 341° |
| 2026-05-07 15:19 | 49.18096 | 9.46112 | 28032 ft | 271 kts | 341° |
| 2026-05-07 15:19 | 49.19880 | 9.45388 | 28031 ft | 266 kts | 341° |
| 2026-05-07 15:19 | 49.21652 | 9.44667 | 28034 ft | 262 kts | 341° |
| 2026-05-07 15:19 | 49.23404 | 9.43953 | 28023 ft | 258 kts | 341° |
| 2026-05-07 15:20 | 49.25130 | 9.43253 | 28029 ft | 256 kts | 341° |
| 2026-05-07 15:20 | 49.26844 | 9.42556 | 28032 ft | 254 kts | 341° |
| 2026-05-07 15:20 | 49.28546 | 9.41862 | 28027 ft | 252 kts | 341° |
| 2026-05-07 15:20 | 49.30235 | 9.41172 | 28030 ft | 251 kts | 341° |
| 2026-05-07 15:21 | 49.31918 | 9.40488 | 28029 ft | 249 kts | 341° |
| 2026-05-07 15:21 | 49.33587 | 9.39806 | 28035 ft | 248 kts | 341° |
| 2026-05-07 15:21 | 49.35252 | 9.39124 | 28028 ft | 247 kts | 341° |
| 2026-05-07 15:21 | 49.36912 | 9.38447 | 28038 ft | 247 kts | 342° |
| 2026-05-07 15:22 | 49.38573 | 9.37768 | 28038 ft | 246 kts | 342° |
| 2026-05-07 15:22 | 49.40227 | 9.37091 | 28038 ft | 246 kts | 342° |
| 2026-05-07 15:22 | 49.41876 | 9.36415 | 28038 ft | 246 kts | 342° |
| 2026-05-07 15:22 | 49.43531 | 9.35736 | 28037 ft | 245 kts | 342° |
| 2026-05-07 15:23 | 49.45180 | 9.35060 | 28039 ft | 245 kts | 342° |
| 2026-05-07 15:23 | 49.46825 | 9.34386 | 28043 ft | 245 kts | 342° |
| 2026-05-07 15:23 | 49.48472 | 9.33709 | 28032 ft | 245 kts | 342° |
| 2026-05-07 15:23 | 49.50115 | 9.33032 | 28033 ft | 245 kts | 342° |
| 2026-05-07 15:24 | 49.51759 | 9.32355 | 28038 ft | 245 kts | 342° |
| 2026-05-07 15:24 | 49.53404 | 9.31681 | 28042 ft | 245 kts | 342° |
| 2026-05-07 15:24 | 49.55051 | 9.31004 | 28037 ft | 245 kts | 342° |
| 2026-05-07 15:24 | 49.56668 | 9.30336 | 28039 ft | 244 kts | 342° |
| 2026-05-07 15:25 | 49.58296 | 9.29666 | 28036 ft | 245 kts | 342° |
| 2026-05-07 15:25 | 49.59948 | 9.28986 | 28048 ft | 245 kts | 342° |
| 2026-05-07 15:25 | 49.61588 | 9.28309 | 28051 ft | 245 kts | 342° |
| 2026-05-07 15:25 | 49.63238 | 9.27628 | 28056 ft | 245 kts | 342° |
| 2026-05-07 15:26 | 49.64882 | 9.26948 | 28053 ft | 245 kts | 342° |
| 2026-05-07 15:26 | 49.66511 | 9.26275 | 28048 ft | 245 kts | 342° |
| 2026-05-07 15:26 | 49.68175 | 9.25586 | 28042 ft | 245 kts | 342° |
| 2026-05-07 15:26 | 49.69814 | 9.24909 | 28054 ft | 245 kts | 342° |
| 2026-05-07 15:27 | 49.71438 | 9.24236 | 28047 ft | 245 kts | 342° |
| 2026-05-07 15:27 | 49.73083 | 9.23551 | 28053 ft | 245 kts | 342° |
| 2026-05-07 15:27 | 49.74726 | 9.22872 | 28047 ft | 245 kts | 342° |
| 2026-05-07 15:27 | 49.76394 | 9.22178 | 28053 ft | 245 kts | 342° |
| 2026-05-07 15:28 | 49.78017 | 9.21506 | 28047 ft | 244 kts | 342° |
| 2026-05-07 15:28 | 49.79658 | 9.20822 | 28052 ft | 244 kts | 342° |
| 2026-05-07 15:28 | 49.81305 | 9.20136 | 28054 ft | 244 kts | 342° |
| 2026-05-07 15:28 | 49.82936 | 9.19456 | 28048 ft | 244 kts | 342° |
| 2026-05-07 15:29 | 49.84589 | 9.18769 | 28060 ft | 244 kts | 342° |
| 2026-05-07 15:29 | 49.86234 | 9.18082 | 28060 ft | 245 kts | 342° |
| 2026-05-07 15:29 | 49.87877 | 9.17396 | 28053 ft | 245 kts | 342° |
| 2026-05-07 15:29 | 49.89523 | 9.16709 | 28057 ft | 245 kts | 342° |
| 2026-05-07 15:30 | 49.91165 | 9.16020 | 28055 ft | 245 kts | 342° |
| 2026-05-07 15:30 | 49.92805 | 9.15333 | 28051 ft | 245 kts | 342° |
| 2026-05-07 15:30 | 49.94454 | 9.14645 | 28058 ft | 244 kts | 342° |
| 2026-05-07 15:30 | 49.96095 | 9.13955 | 28058 ft | 245 kts | 342° |
| 2026-05-07 15:31 | 49.97739 | 9.13266 | 28057 ft | 244 kts | 342° |
| 2026-05-07 15:31 | 49.99380 | 9.12577 | 28053 ft | 244 kts | 342° |
| 2026-05-07 15:31 | 50.00998 | 9.11897 | 28053 ft | 244 kts | 342° |
| 2026-05-07 15:31 | 50.02635 | 9.11210 | 28055 ft | 244 kts | 342° |
| 2026-05-07 15:32 | 50.04202 | 9.10551 | 28049 ft | 243 kts | 342° |
| 2026-05-07 15:32 | 50.05839 | 9.09861 | 28048 ft | 243 kts | 342° |
| 2026-05-07 15:32 | 50.07475 | 9.09170 | 28054 ft | 243 kts | 343° |
| 2026-05-07 15:32 | 50.09111 | 9.08481 | 28058 ft | 244 kts | 342° |
| 2026-05-07 15:33 | 50.10215 | 9.08016 | 28052 ft | 243 kts | 343° |
| 2026-05-07 15:33 | 50.12377 | 9.07104 | 28056 ft | 243 kts | 342° |
| 2026-05-07 15:33 | 50.14010 | 9.06413 | 28052 ft | 243 kts | 343° |
| 2026-05-07 15:33 | 50.15642 | 9.05725 | 28056 ft | 243 kts | 343° |
| 2026-05-07 15:34 | 50.16717 | 9.05271 | 28051 ft | 243 kts | 342° |
| 2026-05-07 15:34 | 50.18346 | 9.04582 | 28053 ft | 243 kts | 343° |
| 2026-05-07 15:34 | 50.19999 | 9.03884 | 28052 ft | 243 kts | 343° |
| 2026-05-07 15:34 | 50.21606 | 9.03203 | 28050 ft | 243 kts | 342° |
| 2026-05-07 15:35 | 50.23236 | 9.02510 | 28046 ft | 243 kts | 342° |
| 2026-05-07 15:35 | 50.24866 | 9.01821 | 28046 ft | 243 kts | 342° |
| 2026-05-07 15:35 | 50.26488 | 9.01132 | 28052 ft | 243 kts | 342° |
| 2026-05-07 15:35 | 50.28091 | 9.00453 | 28049 ft | 243 kts | 342° |
| 2026-05-07 15:36 | 50.29731 | 8.99757 | 28054 ft | 243 kts | 342° |
| 2026-05-07 15:36 | 50.31365 | 8.99060 | 28057 ft | 243 kts | 343° |
| 2026-05-07 15:36 | 50.32998 | 8.98366 | 28057 ft | 243 kts | 343° |
| 2026-05-07 15:36 | 50.34634 | 8.97669 | 28052 ft | 244 kts | 343° |
| 2026-05-07 15:37 | 50.36269 | 8.96974 | 28058 ft | 244 kts | 343° |
| 2026-05-07 15:37 | 50.37907 | 8.96274 | 28054 ft | 244 kts | 343° |
| 2026-05-07 15:37 | 50.39547 | 8.95573 | 28053 ft | 244 kts | 343° |
| 2026-05-07 15:37 | 50.41185 | 8.94876 | 28058 ft | 244 kts | 343° |
| 2026-05-07 15:38 | 50.42820 | 8.94176 | 28056 ft | 244 kts | 343° |
| 2026-05-07 15:38 | 50.44458 | 8.93476 | 28053 ft | 244 kts | 343° |
| 2026-05-07 15:38 | 50.46097 | 8.92775 | 28051 ft | 244 kts | 343° |
| 2026-05-07 15:38 | 50.47740 | 8.92071 | 28051 ft | 244 kts | 343° |
| 2026-05-07 15:39 | 50.49375 | 8.91368 | 28053 ft | 244 kts | 343° |
| 2026-05-07 15:39 | 50.51013 | 8.90666 | 28051 ft | 244 kts | 343° |
| 2026-05-07 15:39 | 50.52632 | 8.89896 | 28049 ft | 242 kts | 336° |
| 2026-05-07 15:39 | 50.54070 | 8.88556 | 28056 ft | 240 kts | 324° |
| 2026-05-07 15:40 | 50.55464 | 8.87094 | 28051 ft | 241 kts | 326° |
| 2026-05-07 15:40 | 50.56873 | 8.85661 | 28052 ft | 241 kts | 326° |
| 2026-05-07 15:40 | 50.58278 | 8.84211 | 28052 ft | 241 kts | 325° |
| 2026-05-07 15:40 | 50.59679 | 8.82757 | 28053 ft | 242 kts | 325° |
| 2026-05-07 15:41 | 50.61086 | 8.81300 | 28045 ft | 242 kts | 325° |
| 2026-05-07 15:41 | 50.62540 | 8.79790 | 27284 ft | 261 kts | 325° |
| 2026-05-07 15:41 | 50.64124 | 8.78144 | 26177 ft | 284 kts | 326° |
| 2026-05-07 15:41 | 50.65800 | 8.76408 | 25309 ft | 290 kts | 326° |
| 2026-05-07 15:42 | 50.67484 | 8.74660 | 24506 ft | 291 kts | 325° |
| 2026-05-07 15:42 | 50.69179 | 8.72897 | 23679 ft | 292 kts | 325° |
| 2026-05-07 15:42 | 50.70883 | 8.71121 | 22672 ft | 294 kts | 325° |
| 2026-05-07 15:42 | 50.72592 | 8.69343 | 21642 ft | 295 kts | 326° |
| 2026-05-07 15:43 | 50.74305 | 8.67556 | 20587 ft | 296 kts | 326° |
| 2026-05-07 15:43 | 50.76006 | 8.65781 | 20054 ft | 281 kts | 326° |
| 2026-05-07 15:43 | 50.77544 | 8.64178 | 20040 ft | 252 kts | 325° |
| 2026-05-07 15:43 | 50.78949 | 8.62706 | 20035 ft | 231 kts | 325° |
| 2026-05-07 15:44 | 50.80213 | 8.61384 | 20043 ft | 216 kts | 325° |
| 2026-05-07 15:44 | 50.81451 | 8.60086 | 20041 ft | 202 kts | 325° |
| 2026-05-07 15:44 | 50.82586 | 8.58898 | 20040 ft | 190 kts | 325° |
| 2026-05-07 15:44 | 50.83656 | 8.57776 | 20043 ft | 179 kts | 325° |
| 2026-05-07 15:45 | 50.84655 | 8.56728 | 20038 ft | 170 kts | 325° |
| 2026-05-07 15:45 | 50.85726 | 8.56130 | 20042 ft | 164 kts | 1° |
| 2026-05-07 15:45 | 50.86769 | 8.56754 | 20047 ft | 158 kts | 24° |
| 2026-05-07 15:45 | 50.87797 | 8.56916 | 20043 ft | 147 kts | 336° |
| 2026-05-07 15:46 | 50.89217 | 8.54864 | 20049 ft | 139 kts | 324° |
| 2026-05-07 15:46 | 50.90011 | 8.53993 | 20018 ft | 141 kts | 322° |
| 2026-05-07 15:46 | 50.90880 | 8.53022 | 19649 ft | 164 kts | 323° |
| 2026-05-07 15:47 | 50.91885 | 8.51913 | 19169 ft | 188 kts | 324° |
| 2026-05-07 15:47 | 50.93034 | 8.50652 | 18558 ft | 214 kts | 324° |
| 2026-05-07 15:47 | 50.94327 | 8.49226 | 17714 ft | 239 kts | 324° |
| 2026-05-07 15:47 | 50.95731 | 8.47675 | 16808 ft | 255 kts | 323° |
| 2026-05-07 15:48 | 50.97248 | 8.46003 | 15410 ft | 277 kts | 324° |
| 2026-05-07 15:48 | 50.98828 | 8.44266 | 14855 ft | 265 kts | 324° |
| 2026-05-07 15:48 | 51.00253 | 8.42690 | 14843 ft | 237 kts | 324° |
| 2026-05-07 15:48 | 51.01546 | 8.41254 | 14836 ft | 217 kts | 324° |
| 2026-05-07 15:49 | 51.02757 | 8.39916 | 14836 ft | 206 kts | 324° |
| 2026-05-07 15:49 | 51.03835 | 8.38720 | 14841 ft | 197 kts | 324° |
| 2026-05-07 15:49 | 51.04930 | 8.37503 | 14836 ft | 187 kts | 324° |
| 2026-05-07 15:49 | 51.05974 | 8.36346 | 14840 ft | 179 kts | 323° |
| 2026-05-07 15:50 | 51.06961 | 8.35252 | 14841 ft | 171 kts | 323° |
| 2026-05-07 15:50 | 51.07919 | 8.34187 | 14841 ft | 166 kts | 324° |
| 2026-05-07 15:50 | 51.08851 | 8.33149 | 14846 ft | 161 kts | 323° |
| 2026-05-07 15:50 | 51.09760 | 8.32142 | 14804 ft | 160 kts | 324° |
| 2026-05-07 15:51 | 51.10730 | 8.31059 | 14279 ft | 182 kts | 324° |
| 2026-05-07 15:51 | 51.11840 | 8.29821 | 13533 ft | 207 kts | 324° |
| 2026-05-07 15:51 | 51.13090 | 8.28430 | 12550 ft | 231 kts | 324° |
| 2026-05-07 15:51 | 51.14473 | 8.26903 | 11227 ft | 252 kts | 325° |
| 2026-05-07 15:52 | 51.15930 | 8.25276 | 9675 ft | 258 kts | 324° |
| 2026-05-07 15:52 | 51.17351 | 8.23684 | 9055 ft | 231 kts | 324° |
| 2026-05-07 15:52 | 51.18568 | 8.22325 | 9042 ft | 203 kts | 324° |
| 2026-05-07 15:52 | 51.19686 | 8.21077 | 9046 ft | 190 kts | 324° |
| 2026-05-07 15:53 | 51.20737 | 8.19901 | 9051 ft | 179 kts | 324° |
| 2026-05-07 15:53 | 51.21727 | 8.18792 | 9049 ft | 170 kts | 324° |
| 2026-05-07 15:53 | 51.22677 | 8.17730 | 9046 ft | 164 kts | 324° |
| 2026-05-07 15:53 | 51.23584 | 8.16716 | 9041 ft | 159 kts | 324° |
| 2026-05-07 15:54 | 51.24491 | 8.15697 | 8947 ft | 159 kts | 324° |
| 2026-05-07 15:54 | 51.25458 | 8.14615 | 8285 ft | 180 kts | 324° |
| 2026-05-07 15:54 | 51.26532 | 8.13410 | 7316 ft | 203 kts | 324° |
| 2026-05-07 15:54 | 51.27754 | 8.12037 | 6057 ft | 227 kts | 324° |
| 2026-05-07 15:55 | 51.29101 | 8.10604 | 5090 ft | 226 kts | 330° |
| 2026-05-07 15:55 | 51.30324 | 8.09317 | 5052 ft | 193 kts | 323° |
| 2026-05-07 15:55 | 51.31304 | 8.08056 | 4763 ft | 179 kts | 322° |
| 2026-05-07 15:55 | 51.32347 | 8.06785 | 3726 ft | 200 kts | 324° |
| 2026-05-07 15:56 | 51.33543 | 8.05756 | 3385 ft | 183 kts | 335° |
| 2026-05-07 15:56 | 51.34600 | 8.04761 | 3283 ft | 167 kts | 322° |
| 2026-05-07 15:56 | 51.35321 | 8.03518 | 3338 ft | 141 kts | 306° |
| 2026-05-07 15:56 | 51.35969 | 8.02491 | 3366 ft | 130 kts | 332° |
| 2026-05-07 15:57 | 51.36764 | 8.01812 | 3367 ft | 129 kts | 335° |
| 2026-05-07 15:57 | 51.37499 | 8.01017 | 3359 ft | 126 kts | 327° |
| 2026-05-07 15:57 | 51.38208 | 8.00249 | 3356 ft | 121 kts | 328° |
| 2026-05-07 15:57 | 51.38892 | 7.99490 | 3309 ft | 121 kts | 328° |
| 2026-05-07 15:58 | 51.39640 | 7.98642 | 2905 ft | 142 kts | 329° |
| 2026-05-07 15:58 | 51.40537 | 7.97700 | 2293 ft | 167 kts | 328° |
| 2026-05-07 15:58 | 51.41478 | 7.96599 | 1782 ft | 175 kts | 326° |
| 2026-05-07 15:58 | 51.42407 | 7.95506 | 1766 ft | 155 kts | 328° |
| 2026-05-07 15:59 | 51.43248 | 7.94562 | 1755 ft | 141 kts | 327° |
| 2026-05-07 15:59 | 51.44005 | 7.93710 | 1756 ft | 128 kts | 329° |
| 2026-05-07 15:59 | 51.44706 | 7.92921 | 1761 ft | 119 kts | 330° |
| 2026-05-07 15:59 | 51.45360 | 7.92190 | 1757 ft | 111 kts | 330° |
| 2026-05-07 16:00 | 51.45970 | 7.91484 | 1768 ft | 104 kts | 327° |
| 2026-05-07 16:00 | 51.46554 | 7.90807 | 1763 ft | 102 kts | 328° |
| 2026-05-07 16:00 | 51.47136 | 7.90151 | 1763 ft | 102 kts | 329° |
| 2026-05-07 16:00 | 51.47712 | 7.89527 | 1763 ft | 99 kts | 327° |
| 2026-05-07 16:01 | 51.48283 | 7.88896 | 1763 ft | 100 kts | 314° |
| 2026-05-07 16:01 | 51.48506 | 7.87858 | 1766 ft | 100 kts | 287° |
| 2026-05-07 16:01 | 51.48767 | 7.86809 | 1768 ft | 103 kts | 296° |
| 2026-05-07 16:01 | 51.49010 | 7.85691 | 1781 ft | 109 kts | 293° |
| 2026-05-07 16:02 | 51.49285 | 7.84535 | 1789 ft | 113 kts | 296° |
| 2026-05-07 16:02 | 51.49576 | 7.83288 | 1786 ft | 124 kts | 293° |
| 2026-05-07 16:02 | 51.49865 | 7.81980 | 1780 ft | 128 kts | 295° |
| 2026-05-07 16:02 | 51.50170 | 7.80622 | 1789 ft | 131 kts | 291° |
| 2026-05-07 16:03 | 51.50482 | 7.79229 | 1782 ft | 134 kts | 294° |
| 2026-05-07 16:03 | 51.50823 | 7.77821 | 1781 ft | 137 kts | 292° |
| 2026-05-07 16:03 | 51.51167 | 7.76357 | 1777 ft | 145 kts | 292° |
| 2026-05-07 16:03 | 51.51504 | 7.74811 | 1781 ft | 147 kts | 292° |
| 2026-05-07 16:04 | 51.51864 | 7.73265 | 1772 ft | 148 kts | 294° |
| 2026-05-07 16:04 | 51.52212 | 7.71710 | 1786 ft | 149 kts | 293° |
| 2026-05-07 16:04 | 51.52591 | 7.70135 | 1785 ft | 153 kts | 294° |
| 2026-05-07 16:04 | 51.52941 | 7.68537 | 1784 ft | 155 kts | 291° |
| 2026-05-07 16:05 | 51.53290 | 7.66907 | 1781 ft | 154 kts | 294° |
| 2026-05-07 16:05 | 51.53672 | 7.65296 | 1780 ft | 154 kts | 293° |
| 2026-05-07 16:05 | 51.54043 | 7.63685 | 1776 ft | 153 kts | 293° |
| 2026-05-07 16:05 | 51.54401 | 7.62100 | 1771 ft | 149 kts | 293° |
| 2026-05-07 16:06 | 51.54757 | 7.60547 | 1769 ft | 147 kts | 294° |
| 2026-05-07 16:06 | 51.55106 | 7.59026 | 1770 ft | 147 kts | 293° |
| 2026-05-07 16:06 | 51.55456 | 7.57473 | 1773 ft | 148 kts | 294° |
| 2026-05-07 16:06 | 51.55807 | 7.55911 | 1769 ft | 148 kts | 292° |
| 2026-05-07 16:07 | 51.56158 | 7.54362 | 1771 ft | 148 kts | 293° |
| 2026-05-07 16:07 | 51.56517 | 7.52788 | 1771 ft | 148 kts | 294° |
| 2026-05-07 16:07 | 51.56869 | 7.51240 | 1768 ft | 148 kts | 293° |
| 2026-05-07 16:07 | 51.57186 | 7.49689 | 1752 ft | 145 kts | 291° |
| 2026-05-07 16:08 | 51.57549 | 7.48176 | 1757 ft | 146 kts | 292° |
| 2026-05-07 16:08 | 51.57904 | 7.46651 | 1766 ft | 146 kts | 292° |
| 2026-05-07 16:08 | 51.58251 | 7.45125 | 1770 ft | 149 kts | 292° |
| 2026-05-07 16:08 | 51.58612 | 7.43535 | 1771 ft | 150 kts | 293° |
| 2026-05-07 16:09 | 51.58964 | 7.41951 | 1770 ft | 151 kts | 292° |
| 2026-05-07 16:09 | 51.59316 | 7.40392 | 1769 ft | 150 kts | 293° |
| 2026-05-07 16:09 | 51.59483 | 7.39667 | 1768 ft | 150 kts | 292° |
| 2026-05-07 16:10 | 51.59728 | 7.38595 | 1765 ft | 150 kts | 294° |
| 2026-05-07 16:10 | 51.60083 | 7.37013 | 1765 ft | 150 kts | 294° |
| 2026-05-07 16:10 | 51.60433 | 7.35441 | 1767 ft | 150 kts | 293° |
| 2026-05-07 16:10 | 51.60792 | 7.33856 | 1756 ft | 150 kts | 293° |
| 2026-05-07 16:11 | 51.61124 | 7.32361 | 1757 ft | 133 kts | 294° |
| 2026-05-07 16:11 | 51.61419 | 7.31035 | 1741 ft | 119 kts | 292° |
| 2026-05-07 16:11 | 51.61694 | 7.29834 | 1742 ft | 111 kts | 293° |
| 2026-05-07 16:11 | 51.61950 | 7.28688 | 1744 ft | 106 kts | 295° |
| 2026-05-07 16:12 | 51.62204 | 7.27563 | 1748 ft | 108 kts | 292° |
| 2026-05-07 16:12 | 51.62462 | 7.26420 | 1760 ft | 110 kts | 293° |
| 2026-05-07 16:12 | 51.62723 | 7.25249 | 1766 ft | 112 kts | 295° |
| 2026-05-07 16:12 | 51.62997 | 7.24081 | 1711 ft | 117 kts | 286° |
| 2026-05-07 16:13 | 51.63104 | 7.22773 | 1699 ft | 121 kts | 277° |
| 2026-05-07 16:13 | 51.63147 | 7.21460 | 1653 ft | 115 kts | 271° |
| 2026-05-07 16:13 | 51.63133 | 7.20188 | 1543 ft | 104 kts | 270° |
| 2026-05-07 16:13 | 51.63130 | 7.19044 | 1227 ft | 99 kts | 274° |
| 2026-05-07 16:14 | 51.63062 | 7.17975 | 942 ft | 96 kts | 255° |
| 2026-05-07 16:14 | 51.62849 | 7.16974 | 774 ft | 93 kts | 252° |
| 2026-05-07 16:14 | 51.62755 | 7.16010 | 688 ft | 85 kts | 274° |
| 2026-05-07 16:14 | 51.62910 | 7.15110 | 631 ft | 85 kts | 301° |
| 2026-05-07 16:15 | 51.63220 | 7.14312 | 565 ft | 82 kts | 320° |
| 2026-05-07 16:15 | 51.63723 | 7.13966 | 473 ft | 82 kts | 2° |
| 2026-05-07 16:15 | 51.64195 | 7.14372 | 451 ft | 80 kts | 52° |
| 2026-05-07 16:15 | 51.64465 | 7.15167 | 348 ft | 83 kts | 70° |
| 2026-05-07 16:16 | 51.64652 | 7.16003 | 251 ft | 78 kts | 68° |
| 2026-05-07 16:16 | 51.64797 | 7.16702 | 240 ft | 34 kts | 73° |
| 2026-05-07 16:16 | 51.64843 | 7.16917 | 238 ft | 12 kts | 30° |
| 2026-05-07 16:16 | 51.64866 | 7.16821 | 236 ft | 19 kts | 252° |
| 2026-05-07 16:17 | 51.64831 | 7.16658 | 238 ft | 20 kts | 251° |
| 2026-05-07 16:17 | 51.64789 | 7.16443 | 236 ft | 20 kts | 252° |
| 2026-05-07 16:17 | 51.64754 | 7.16264 | 236 ft | 19 kts | 252° |
| 2026-05-07 16:17 | 51.64730 | 7.16122 | 232 ft | 10 kts | 267° |
| 2026-05-07 16:18 | 51.64732 | 7.16011 | 235 ft | 6 kts | 256° |
| 2026-05-07 16:18 | 51.64737 | 7.15983 | 235 ft | 1 kts | 341° |